sensor_id;sensor_type;location;lat;lon;timestamp;noise_LAeq;noise_LA_min;noise_LA_max;noise_LA01;noise_LA95
74531;Laerm;63010;55.668;37.878;2022-11-20T00:01:21;49.85;43.31;57.70;;
74531;Laerm;63010;55.668;37.878;2022-11-20T00:03:47;53.59;44.77;62.67;;
74531;Laerm;63010;55.668;37.878;2022-11-20T00:06:17;52.76;45.14;67.63;;
74531;Laerm;63010;55.668;37.878;2022-11-20T00:08:45;54.83;46.48;65.69;;
74531;Laerm;63010;55.668;37.878;2022-11-20T00:11:19;54.59;45.88;65.89;;
74531;Laerm;63010;55.668;37.878;2022-11-20T00:13:46;52.93;43.81;66.88;;
74531;Laerm;63010;55.668;37.878;2022-11-20T00:16:15;51.82;45.08;61.67;;
74531;Laerm;63010;55.668;37.878;2022-11-20T00:18:41;52.74;45.14;65.22;;
74531;Laerm;63010;55.668;37.878;2022-11-20T00:21:11;52.51;45.37;62.85;;
74531;Laerm;63010;55.668;37.878;2022-11-20T00:23:37;54.41;45.08;71.27;;
74531;Laerm;63010;55.668;37.878;2022-11-20T00:26:07;53.78;43.86;68.38;;
74531;Laerm;63010;55.668;37.878;2022-11-20T00:28:33;51.43;43.44;58.37;;
74531;Laerm;63010;55.668;37.878;2022-11-20T00:31:07;51.98;43.87;61.61;;
74531;Laerm;63010;55.668;37.878;2022-11-20T00:33:33;53.91;46.00;69.27;;
74531;Laerm;63010;55.668;37.878;2022-11-20T00:36:10;52.12;44.20;63.85;;
74531;Laerm;63010;55.668;37.878;2022-11-20T00:38:36;52.96;45.32;63.24;;
74531;Laerm;63010;55.668;37.878;2022-11-20T00:41:04;52.13;44.14;59.59;;
74531;Laerm;63010;55.668;37.878;2022-11-20T00:43:30;53.65;44.80;68.17;;
74531;Laerm;63010;55.668;37.878;2022-11-20T00:45:59;51.81;44.46;60.45;;
74531;Laerm;63010;55.668;37.878;2022-11-20T00:48:25;51.59;43.30;58.90;;
74531;Laerm;63010;55.668;37.878;2022-11-20T00:50:51;51.67;43.98;66.98;;
74531;Laerm;63010;55.668;37.878;2022-11-20T00:53:16;52.97;45.46;64.31;;
74531;Laerm;63010;55.668;37.878;2022-11-20T00:55:42;51.27;44.71;60.01;;
74531;Laerm;63010;55.668;37.878;2022-11-20T00:58:08;55.08;47.14;66.71;;
74531;Laerm;63010;55.668;37.878;2022-11-20T01:00:34;52.73;43.56;62.27;;
74531;Laerm;63010;55.668;37.878;2022-11-20T01:02:59;50.11;41.94;62.96;;
74531;Laerm;63010;55.668;37.878;2022-11-20T01:05:25;53.40;45.52;60.73;;
74531;Laerm;63010;55.668;37.878;2022-11-20T01:07:50;53.46;45.46;62.98;;
74531;Laerm;63010;55.668;37.878;2022-11-20T01:10:16;53.79;46.61;64.33;;
74531;Laerm;63010;55.668;37.878;2022-11-20T01:12:42;54.90;46.29;65.62;;
74531;Laerm;63010;55.668;37.878;2022-11-20T01:15:08;52.22;43.80;60.92;;
74531;Laerm;63010;55.668;37.878;2022-11-20T01:17:34;51.21;43.54;59.52;;
74531;Laerm;63010;55.668;37.878;2022-11-20T01:19:59;52.46;44.89;61.31;;
74531;Laerm;63010;55.668;37.878;2022-11-20T01:22:25;54.35;44.18;66.29;;
74531;Laerm;63010;55.668;37.878;2022-11-20T01:24:50;54.43;44.82;66.38;;
74531;Laerm;63010;55.668;37.878;2022-11-20T01:27:16;56.84;46.34;66.54;;
74531;Laerm;63010;55.668;37.878;2022-11-20T01:29:41;54.46;46.56;65.10;;
74531;Laerm;63010;55.668;37.878;2022-11-20T01:32:07;52.57;43.62;66.41;;
74531;Laerm;63010;55.668;37.878;2022-11-20T01:34:32;53.11;45.59;66.74;;
74531;Laerm;63010;55.668;37.878;2022-11-20T01:36:58;53.05;45.38;61.96;;
74531;Laerm;63010;55.668;37.878;2022-11-20T01:39:25;53.09;46.42;61.52;;
74531;Laerm;63010;55.668;37.878;2022-11-20T01:41:52;51.58;43.77;59.73;;
74531;Laerm;63010;55.668;37.878;2022-11-20T01:44:51;52.49;43.77;62.68;;
74531;Laerm;63010;55.668;37.878;2022-11-20T01:50:03;51.92;43.16;59.93;;
74531;Laerm;63010;55.668;37.878;2022-11-20T01:52:37;52.54;44.53;63.29;;
74531;Laerm;63010;55.668;37.878;2022-11-20T01:55:08;53.06;44.82;64.47;;
74531;Laerm;63010;55.668;37.878;2022-11-20T01:57:35;52.37;45.11;62.70;;
74531;Laerm;63010;55.668;37.878;2022-11-20T02:00:13;54.42;45.04;68.62;;
74531;Laerm;63010;55.668;37.878;2022-11-20T02:02:41;53.74;43.92;65.47;;
74531;Laerm;63010;55.668;37.878;2022-11-20T02:07:43;53.95;46.78;62.87;;
74531;Laerm;63010;55.668;37.878;2022-11-20T02:10:09;53.60;45.89;63.02;;
74531;Laerm;63010;55.668;37.878;2022-11-20T02:12:35;53.84;46.24;62.04;;
74531;Laerm;63010;55.668;37.878;2022-11-20T02:15:40;53.61;46.26;65.21;;
74531;Laerm;63010;55.668;37.878;2022-11-20T02:18:06;54.52;46.77;65.29;;
74531;Laerm;63010;55.668;37.878;2022-11-20T02:20:32;53.62;44.43;64.81;;
74531;Laerm;63010;55.668;37.878;2022-11-20T02:25:28;53.49;46.27;62.21;;
74531;Laerm;63010;55.668;37.878;2022-11-20T02:27:56;54.28;46.40;61.80;;
74531;Laerm;63010;55.668;37.878;2022-11-20T02:30:22;55.55;46.54;67.42;;
74531;Laerm;63010;55.668;37.878;2022-11-20T02:32:47;54.52;47.84;64.10;;
74531;Laerm;63010;55.668;37.878;2022-11-20T02:37:46;53.43;46.53;60.25;;
74531;Laerm;63010;55.668;37.878;2022-11-20T02:40:13;57.03;46.31;71.38;;
74531;Laerm;63010;55.668;37.878;2022-11-20T02:42:39;56.43;46.14;67.94;;
74531;Laerm;63010;55.668;37.878;2022-11-20T02:45:06;54.26;45.33;63.12;;
74531;Laerm;63010;55.668;37.878;2022-11-20T02:47:32;55.64;43.96;65.07;;
74531;Laerm;63010;55.668;37.878;2022-11-20T02:49:58;54.84;45.55;63.67;;
74531;Laerm;63010;55.668;37.878;2022-11-20T02:52:24;55.74;49.08;63.72;;
74531;Laerm;63010;55.668;37.878;2022-11-20T02:54:50;55.04;47.96;61.95;;
74531;Laerm;63010;55.668;37.878;2022-11-20T02:57:15;54.79;47.36;66.02;;
74531;Laerm;63010;55.668;37.878;2022-11-20T02:59:41;54.01;46.63;62.42;;
74531;Laerm;63010;55.668;37.878;2022-11-20T03:02:07;55.11;48.68;63.78;;
74531;Laerm;63010;55.668;37.878;2022-11-20T03:04:32;55.86;47.65;64.55;;
74531;Laerm;63010;55.668;37.878;2022-11-20T03:06:58;54.78;48.48;61.12;;
74531;Laerm;63010;55.668;37.878;2022-11-20T03:09:23;56.61;49.60;62.68;;
74531;Laerm;63010;55.668;37.878;2022-11-20T03:11:49;55.01;48.13;62.24;;
74531;Laerm;63010;55.668;37.878;2022-11-20T03:14:14;56.41;49.69;64.74;;
74531;Laerm;63010;55.668;37.878;2022-11-20T03:16:40;56.07;49.50;64.81;;
74531;Laerm;63010;55.668;37.878;2022-11-20T03:19:06;55.47;48.75;61.94;;
74531;Laerm;63010;55.668;37.878;2022-11-20T03:21:35;55.86;48.64;68.31;;
74531;Laerm;63010;55.668;37.878;2022-11-20T03:24:01;56.16;48.28;65.72;;
74531;Laerm;63010;55.668;37.878;2022-11-20T03:26:27;56.31;48.82;67.29;;
74531;Laerm;63010;55.668;37.878;2022-11-20T03:28:57;55.28;48.07;64.74;;
74531;Laerm;63010;55.668;37.878;2022-11-20T03:31:26;55.99;49.98;65.72;;
74531;Laerm;63010;55.668;37.878;2022-11-20T03:33:52;56.13;49.58;62.80;;
74531;Laerm;63010;55.668;37.878;2022-11-20T03:36:19;56.01;48.51;62.79;;
74531;Laerm;63010;55.668;37.878;2022-11-20T03:38:46;55.67;49.95;62.48;;
74531;Laerm;63010;55.668;37.878;2022-11-20T03:41:17;56.45;48.56;63.52;;
74531;Laerm;63010;55.668;37.878;2022-11-20T03:43:51;55.42;48.31;61.62;;
74531;Laerm;63010;55.668;37.878;2022-11-20T03:46:17;56.09;50.80;62.01;;
74531;Laerm;63010;55.668;37.878;2022-11-20T03:48:43;57.52;48.49;67.84;;
74531;Laerm;63010;55.668;37.878;2022-11-20T03:53:38;56.08;48.15;62.40;;
74531;Laerm;63010;55.668;37.878;2022-11-20T03:56:04;55.69;49.01;62.74;;
74531;Laerm;63010;55.668;37.878;2022-11-20T03:58:29;55.13;50.19;61.75;;
74531;Laerm;63010;55.668;37.878;2022-11-20T04:00:55;53.14;47.56;59.31;;
74531;Laerm;63010;55.668;37.878;2022-11-20T04:03:20;55.38;49.73;61.87;;
74531;Laerm;63010;55.668;37.878;2022-11-20T04:05:46;56.52;48.52;63.76;;
74531;Laerm;63010;55.668;37.878;2022-11-20T04:08:12;55.98;50.64;64.52;;
74531;Laerm;63010;55.668;37.878;2022-11-20T04:10:37;55.69;50.72;61.50;;
74531;Laerm;63010;55.668;37.878;2022-11-20T04:13:03;55.15;50.02;60.95;;
74531;Laerm;63010;55.668;37.878;2022-11-20T04:15:29;56.04;50.41;64.44;;
74531;Laerm;63010;55.668;37.878;2022-11-20T04:17:54;56.03;48.23;64.27;;
74531;Laerm;63010;55.668;37.878;2022-11-20T04:20:20;55.69;49.20;65.99;;
74531;Laerm;63010;55.668;37.878;2022-11-20T04:22:46;55.19;49.28;64.95;;
74531;Laerm;63010;55.668;37.878;2022-11-20T04:25:11;55.63;48.82;65.66;;
74531;Laerm;63010;55.668;37.878;2022-11-20T04:27:38;54.77;49.31;59.69;;
74531;Laerm;63010;55.668;37.878;2022-11-20T04:30:03;55.45;48.04;64.41;;
74531;Laerm;63010;55.668;37.878;2022-11-20T04:32:29;56.06;50.99;63.08;;
74531;Laerm;63010;55.668;37.878;2022-11-20T04:34:55;56.13;49.41;65.53;;
74531;Laerm;63010;55.668;37.878;2022-11-20T04:37:20;55.82;50.78;61.73;;
74531;Laerm;63010;55.668;37.878;2022-11-20T04:39:46;55.75;48.40;67.27;;
74531;Laerm;63010;55.668;37.878;2022-11-20T04:42:11;55.29;49.44;61.43;;
74531;Laerm;63010;55.668;37.878;2022-11-20T04:44:55;53.92;48.65;61.33;;
74531;Laerm;63010;55.668;37.878;2022-11-20T04:47:21;54.56;48.21;60.49;;
74531;Laerm;63010;55.668;37.878;2022-11-20T04:49:46;56.70;51.15;66.68;;
74531;Laerm;63010;55.668;37.878;2022-11-20T04:52:12;56.06;49.92;66.24;;
74531;Laerm;63010;55.668;37.878;2022-11-20T04:54:38;55.06;49.26;60.29;;
74531;Laerm;63010;55.668;37.878;2022-11-20T04:57:04;55.92;50.29;64.94;;
74531;Laerm;63010;55.668;37.878;2022-11-20T04:59:29;55.48;50.34;68.10;;
74531;Laerm;63010;55.668;37.878;2022-11-20T05:01:55;55.86;49.88;65.43;;
74531;Laerm;63010;55.668;37.878;2022-11-20T05:04:20;55.65;49.22;62.96;;
74531;Laerm;63010;55.668;37.878;2022-11-20T05:06:46;56.82;50.52;64.24;;
74531;Laerm;63010;55.668;37.878;2022-11-20T05:09:12;56.34;50.17;63.95;;
74531;Laerm;63010;55.668;37.878;2022-11-20T05:11:38;56.68;51.71;63.15;;
74531;Laerm;63010;55.668;37.878;2022-11-20T05:14:04;55.81;50.65;61.20;;
74531;Laerm;63010;55.668;37.878;2022-11-20T05:16:29;56.87;50.85;69.34;;
74531;Laerm;63010;55.668;37.878;2022-11-20T05:18:55;57.10;49.57;70.85;;
74531;Laerm;63010;55.668;37.878;2022-11-20T05:21:21;55.88;49.80;63.08;;
74531;Laerm;63010;55.668;37.878;2022-11-20T05:23:47;56.14;50.99;63.98;;
74531;Laerm;63010;55.668;37.878;2022-11-20T05:26:15;56.91;51.08;64.73;;
74531;Laerm;63010;55.668;37.878;2022-11-20T05:28:41;55.94;50.71;61.57;;
74531;Laerm;63010;55.668;37.878;2022-11-20T05:31:12;58.45;51.81;69.79;;
74531;Laerm;63010;55.668;37.878;2022-11-20T05:33:40;57.41;51.64;67.02;;
74531;Laerm;63010;55.668;37.878;2022-11-20T05:36:06;55.89;50.54;65.40;;
74531;Laerm;63010;55.668;37.878;2022-11-20T05:38:32;56.78;51.28;62.30;;
74531;Laerm;63010;55.668;37.878;2022-11-20T05:41:12;56.65;51.69;65.26;;
74531;Laerm;63010;55.668;37.878;2022-11-20T05:43:39;57.65;52.18;68.97;;
74531;Laerm;63010;55.668;37.878;2022-11-20T05:46:06;57.22;52.28;64.55;;
74531;Laerm;63010;55.668;37.878;2022-11-20T05:48:33;56.61;51.43;61.68;;
74531;Laerm;63010;55.668;37.878;2022-11-20T05:51:01;58.24;51.59;70.03;;
74531;Laerm;63010;55.668;37.878;2022-11-20T05:53:27;59.32;52.65;70.16;;
74531;Laerm;63010;55.668;37.878;2022-11-20T05:56:13;56.49;49.24;62.93;;
74531;Laerm;63010;55.668;37.878;2022-11-20T05:58:39;56.70;51.31;64.37;;
74531;Laerm;63010;55.668;37.878;2022-11-20T06:01:21;57.92;51.85;67.87;;
74531;Laerm;63010;55.668;37.878;2022-11-20T06:03:47;57.82;52.66;69.61;;
74531;Laerm;63010;55.668;37.878;2022-11-20T06:06:15;57.19;51.09;66.56;;
74531;Laerm;63010;55.668;37.878;2022-11-20T06:08:41;56.51;51.40;63.24;;
74531;Laerm;63010;55.668;37.878;2022-11-20T06:11:09;57.08;52.36;64.13;;
74531;Laerm;63010;55.668;37.878;2022-11-20T06:13:36;56.91;51.79;63.79;;
74531;Laerm;63010;55.668;37.878;2022-11-20T06:16:02;57.49;51.62;64.68;;
74531;Laerm;63010;55.668;37.878;2022-11-20T06:18:28;55.91;51.39;67.01;;
74531;Laerm;63010;55.668;37.878;2022-11-20T06:21:08;59.17;51.63;72.36;;
74531;Laerm;63010;55.668;37.878;2022-11-20T06:23:34;55.51;50.72;62.72;;
74531;Laerm;63010;55.668;37.878;2022-11-20T06:26:05;57.77;51.16;69.56;;
74531;Laerm;63010;55.668;37.878;2022-11-20T06:28:31;57.30;52.18;64.86;;
74531;Laerm;63010;55.668;37.878;2022-11-20T06:30:57;56.88;52.11;62.45;;
74531;Laerm;63010;55.668;37.878;2022-11-20T06:33:23;58.49;52.40;66.14;;
74531;Laerm;63010;55.668;37.878;2022-11-20T06:35:49;57.50;51.93;67.97;;
74531;Laerm;63010;55.668;37.878;2022-11-20T06:38:14;56.32;51.70;61.84;;
74531;Laerm;63010;55.668;37.878;2022-11-20T06:40:43;56.31;50.98;65.55;;
74531;Laerm;63010;55.668;37.878;2022-11-20T06:43:11;58.57;51.76;73.41;;
74531;Laerm;63010;55.668;37.878;2022-11-20T06:45:37;56.83;51.09;70.96;;
74531;Laerm;63010;55.668;37.878;2022-11-20T06:48:03;57.23;51.63;66.78;;
74531;Laerm;63010;55.668;37.878;2022-11-20T06:50:28;58.03;52.73;65.86;;
74531;Laerm;63010;55.668;37.878;2022-11-20T06:52:54;57.32;52.89;63.27;;
74531;Laerm;63010;55.668;37.878;2022-11-20T06:55:20;57.18;52.97;79.74;;
74531;Laerm;63010;55.668;37.878;2022-11-20T06:57:45;57.17;52.15;62.73;;
74531;Laerm;63010;55.668;37.878;2022-11-20T07:00:11;57.71;52.39;64.35;;
74531;Laerm;63010;55.668;37.878;2022-11-20T07:02:37;58.54;52.38;79.05;;
74531;Laerm;63010;55.668;37.878;2022-11-20T07:05:02;59.22;54.44;67.43;;
74531;Laerm;63010;55.668;37.878;2022-11-20T07:07:29;57.19;51.11;65.22;;
74531;Laerm;63010;55.668;37.878;2022-11-20T07:09:54;57.66;51.71;69.19;;
74531;Laerm;63010;55.668;37.878;2022-11-20T07:12:20;57.50;52.34;65.41;;
74531;Laerm;63010;55.668;37.878;2022-11-20T07:14:45;57.70;53.22;63.08;;
74531;Laerm;63010;55.668;37.878;2022-11-20T07:17:11;56.48;51.84;61.03;;
74531;Laerm;63010;55.668;37.878;2022-11-20T07:19:37;57.71;53.78;65.02;;
74531;Laerm;63010;55.668;37.878;2022-11-20T07:22:03;59.12;52.76;68.82;;
74531;Laerm;63010;55.668;37.878;2022-11-20T07:24:28;58.27;54.19;65.88;;
74531;Laerm;63010;55.668;37.878;2022-11-20T07:26:54;58.35;53.70;67.68;;
74531;Laerm;63010;55.668;37.878;2022-11-20T07:29:19;59.59;50.86;72.83;;
74531;Laerm;63010;55.668;37.878;2022-11-20T07:31:45;58.26;53.02;66.78;;
74531;Laerm;63010;55.668;37.878;2022-11-20T07:34:10;58.13;53.01;65.86;;
74531;Laerm;63010;55.668;37.878;2022-11-20T07:36:36;59.32;53.61;65.98;;
74531;Laerm;63010;55.668;37.878;2022-11-20T07:39:01;58.20;54.39;65.06;;
74531;Laerm;63010;55.668;37.878;2022-11-20T07:41:27;59.64;53.10;69.22;;
74531;Laerm;63010;55.668;37.878;2022-11-20T07:43:53;59.91;54.10;68.91;;
74531;Laerm;63010;55.668;37.878;2022-11-20T07:46:18;58.16;52.19;68.74;;
74531;Laerm;63010;55.668;37.878;2022-11-20T07:48:44;60.16;51.95;72.25;;
74531;Laerm;63010;55.668;37.878;2022-11-20T07:51:09;58.83;52.07;74.28;;
74531;Laerm;63010;55.668;37.878;2022-11-20T07:53:35;57.24;51.94;65.09;;
74531;Laerm;63010;55.668;37.878;2022-11-20T07:56:01;56.86;51.65;65.22;;
74531;Laerm;63010;55.668;37.878;2022-11-20T07:58:30;58.39;53.10;66.35;;
74531;Laerm;63010;55.668;37.878;2022-11-20T08:01:02;58.15;52.93;64.93;;
74531;Laerm;63010;55.668;37.878;2022-11-20T08:03:28;57.97;52.29;67.12;;
74531;Laerm;63010;55.668;37.878;2022-11-20T08:05:54;56.41;51.53;65.83;;
74531;Laerm;63010;55.668;37.878;2022-11-20T08:08:23;56.89;51.37;68.75;;
74531;Laerm;63010;55.668;37.878;2022-11-20T08:10:49;56.69;52.20;61.83;;
74531;Laerm;63010;55.668;37.878;2022-11-20T08:13:14;56.99;52.66;70.81;;
74531;Laerm;63010;55.668;37.878;2022-11-20T08:15:58;57.63;51.87;64.90;;
74531;Laerm;63010;55.668;37.878;2022-11-20T08:18:24;58.78;54.35;67.08;;
74531;Laerm;63010;55.668;37.878;2022-11-20T08:20:49;58.57;54.01;68.12;;
74531;Laerm;63010;55.668;37.878;2022-11-20T08:23:15;58.96;54.84;63.89;;
74531;Laerm;63010;55.668;37.878;2022-11-20T08:25:40;59.40;54.88;70.67;;
74531;Laerm;63010;55.668;37.878;2022-11-20T08:28:07;59.01;54.92;71.63;;
74531;Laerm;63010;55.668;37.878;2022-11-20T08:30:34;60.23;54.88;76.39;;
74531;Laerm;63010;55.668;37.878;2022-11-20T08:33:05;62.05;55.67;77.80;;
74531;Laerm;63010;55.668;37.878;2022-11-20T08:35:35;60.40;54.93;72.18;;
74531;Laerm;63010;55.668;37.878;2022-11-20T08:38:05;58.78;51.72;77.39;;
74531;Laerm;63010;55.668;37.878;2022-11-20T08:40:32;56.65;50.86;69.55;;
74531;Laerm;63010;55.668;37.878;2022-11-20T08:42:58;57.39;51.31;70.20;;
74531;Laerm;63010;55.668;37.878;2022-11-20T08:45:24;58.15;51.19;74.48;;
74531;Laerm;63010;55.668;37.878;2022-11-20T08:47:49;57.44;52.20;70.20;;
74531;Laerm;63010;55.668;37.878;2022-11-20T08:50:16;57.58;50.24;67.25;;
74531;Laerm;63010;55.668;37.878;2022-11-20T08:52:42;60.52;53.51;72.44;;
74531;Laerm;63010;55.668;37.878;2022-11-20T08:55:08;57.55;51.85;69.59;;
74531;Laerm;63010;55.668;37.878;2022-11-20T08:57:35;56.46;52.08;63.89;;
74531;Laerm;63010;55.668;37.878;2022-11-20T09:00:03;57.11;52.29;63.68;;
74531;Laerm;63010;55.668;37.878;2022-11-20T09:02:30;58.18;51.37;68.58;;
74531;Laerm;63010;55.668;37.878;2022-11-20T09:04:56;57.78;51.72;67.41;;
74531;Laerm;63010;55.668;37.878;2022-11-20T09:07:21;59.53;51.62;71.09;;
74531;Laerm;63010;55.668;37.878;2022-11-20T09:09:47;57.56;52.80;65.87;;
74531;Laerm;63010;55.668;37.878;2022-11-20T09:12:13;57.95;51.45;69.41;;
74531;Laerm;63010;55.668;37.878;2022-11-20T09:14:39;57.12;53.40;62.96;;
74531;Laerm;63010;55.668;37.878;2022-11-20T09:17:04;58.55;53.62;66.79;;
74531;Laerm;63010;55.668;37.878;2022-11-20T09:19:30;60.89;56.52;68.98;;
74531;Laerm;63010;55.668;37.878;2022-11-20T09:21:55;59.57;55.56;66.82;;
74531;Laerm;63010;55.668;37.878;2022-11-20T09:24:21;59.80;56.04;64.91;;
74531;Laerm;63010;55.668;37.878;2022-11-20T09:26:46;59.56;56.44;65.38;;
74531;Laerm;63010;55.668;37.878;2022-11-20T09:29:12;60.28;55.34;66.78;;
74531;Laerm;63010;55.668;37.878;2022-11-20T09:31:38;61.54;55.23;71.53;;
74531;Laerm;63010;55.668;37.878;2022-11-20T09:34:03;62.00;56.66;69.96;;
74531;Laerm;63010;55.668;37.878;2022-11-20T09:36:29;61.56;55.76;71.78;;
74531;Laerm;63010;55.668;37.878;2022-11-20T09:38:55;60.54;55.36;72.56;;
74531;Laerm;63010;55.668;37.878;2022-11-20T09:41:47;61.36;54.99;87.40;;
74531;Laerm;63010;55.668;37.878;2022-11-20T09:44:47;61.21;55.92;71.43;;
74531;Laerm;63010;55.668;37.878;2022-11-20T09:52:49;61.15;56.08;69.95;;
74531;Laerm;63010;55.668;37.878;2022-11-20T09:55:21;60.04;55.19;67.18;;
74531;Laerm;63010;55.668;37.878;2022-11-20T09:57:48;61.23;55.42;70.95;;
74531;Laerm;63010;55.668;37.878;2022-11-20T10:00:16;60.86;55.06;67.25;;
74531;Laerm;63010;55.668;37.878;2022-11-20T10:02:55;61.27;56.37;69.62;;
74531;Laerm;63010;55.668;37.878;2022-11-20T10:05:45;62.59;56.99;71.03;;
74531;Laerm;63010;55.668;37.878;2022-11-20T10:08:24;62.07;56.52;73.24;;
74531;Laerm;63010;55.668;37.878;2022-11-20T10:13:29;62.42;57.49;71.68;;
74531;Laerm;63010;55.668;37.878;2022-11-20T10:26:03;61.80;56.35;69.94;;
74531;Laerm;63010;55.668;37.878;2022-11-20T10:31:25;61.63;56.68;68.93;;
74531;Laerm;63010;55.668;37.878;2022-11-20T10:33:53;61.95;57.96;70.25;;
74531;Laerm;63010;55.668;37.878;2022-11-20T10:36:25;61.20;56.49;69.95;;
74531;Laerm;63010;55.668;37.878;2022-11-20T10:38:58;61.24;56.65;70.64;;
74531;Laerm;63010;55.668;37.878;2022-11-20T10:41:32;60.69;56.02;69.39;;
74531;Laerm;63010;55.668;37.878;2022-11-20T10:44:24;61.73;56.60;70.27;;
74531;Laerm;63010;55.668;37.878;2022-11-20T10:47:14;62.08;56.51;79.08;;
74531;Laerm;63010;55.668;37.878;2022-11-20T10:49:41;61.27;56.91;70.10;;
74531;Laerm;63010;55.668;37.878;2022-11-20T10:52:40;61.74;56.08;71.80;;
74531;Laerm;63010;55.668;37.878;2022-11-20T10:58:37;61.21;56.38;68.86;;
74531;Laerm;63010;55.668;37.878;2022-11-20T11:01:17;61.38;57.11;67.06;;
74531;Laerm;63010;55.668;37.878;2022-11-20T11:03:43;61.25;57.91;69.11;;
74531;Laerm;63010;55.668;37.878;2022-11-20T11:06:25;62.04;56.26;68.74;;
74531;Laerm;63010;55.668;37.878;2022-11-20T11:08:56;61.51;58.24;67.69;;
74531;Laerm;63010;55.668;37.878;2022-11-20T11:11:33;61.93;57.24;73.29;;
74531;Laerm;63010;55.668;37.878;2022-11-20T11:14:10;61.02;57.70;70.62;;
74531;Laerm;63010;55.668;37.878;2022-11-20T11:16:49;61.49;56.58;65.80;;
74531;Laerm;63010;55.668;37.878;2022-11-20T11:19:16;60.68;57.26;67.99;;
74531;Laerm;63010;55.668;37.878;2022-11-20T11:21:50;60.95;57.62;70.68;;
74531;Laerm;63010;55.668;37.878;2022-11-20T11:24:23;61.66;57.60;67.14;;
74531;Laerm;63010;55.668;37.878;2022-11-20T11:26:58;61.80;57.44;73.35;;
74531;Laerm;63010;55.668;37.878;2022-11-20T11:29:25;61.01;57.03;72.18;;
74531;Laerm;63010;55.668;37.878;2022-11-20T11:32:14;60.64;56.26;70.14;;
74531;Laerm;63010;55.668;37.878;2022-11-20T11:34:41;60.56;56.67;66.45;;
74531;Laerm;63010;55.668;37.878;2022-11-20T11:37:17;59.77;56.29;65.80;;
74531;Laerm;63010;55.668;37.878;2022-11-20T11:39:46;60.57;55.77;68.38;;
74531;Laerm;63010;55.668;37.878;2022-11-20T11:42:17;59.63;55.83;66.09;;
74531;Laerm;63010;55.668;37.878;2022-11-20T11:44:45;60.25;56.88;67.80;;
74531;Laerm;63010;55.668;37.878;2022-11-20T11:47:33;60.98;56.85;70.00;;
74531;Laerm;63010;55.668;37.878;2022-11-20T11:52:48;60.61;57.09;68.02;;
74531;Laerm;63010;55.668;37.878;2022-11-20T11:55:42;60.58;56.60;69.38;;
74531;Laerm;63010;55.668;37.878;2022-11-20T11:58:16;61.55;57.30;77.79;;
74531;Laerm;63010;55.668;37.878;2022-11-20T12:01:07;61.35;56.36;76.43;;
74531;Laerm;63010;55.668;37.878;2022-11-20T12:03:38;61.62;54.30;76.36;;
74531;Laerm;63010;55.668;37.878;2022-11-20T12:06:12;60.80;54.03;69.81;;
74531;Laerm;63010;55.668;37.878;2022-11-20T12:09:05;60.75;56.57;69.64;;
74531;Laerm;63010;55.668;37.878;2022-11-20T12:14:37;60.33;55.46;71.90;;
74531;Laerm;63010;55.668;37.878;2022-11-20T12:17:03;60.93;54.91;78.50;;
74531;Laerm;63010;55.668;37.878;2022-11-20T12:19:34;60.11;54.28;70.76;;
74531;Laerm;63010;55.668;37.878;2022-11-20T12:22:32;60.64;55.30;72.99;;
74531;Laerm;63010;55.668;37.878;2022-11-20T12:25:10;61.01;55.35;75.26;;
74531;Laerm;63010;55.668;37.878;2022-11-20T12:30:19;60.57;54.78;73.10;;
74531;Laerm;63010;55.668;37.878;2022-11-20T12:58:22;59.37;55.72;64.84;;
74531;Laerm;63010;55.668;37.878;2022-11-20T13:01:30;58.53;54.45;66.35;;
74531;Laerm;63010;55.668;37.878;2022-11-20T13:06:58;59.49;53.13;72.35;;
74531;Laerm;63010;55.668;37.878;2022-11-20T13:09:25;58.26;54.16;63.92;;
74531;Laerm;63010;55.668;37.878;2022-11-20T13:14:42;59.81;53.99;71.21;;
74531;Laerm;63010;55.668;37.878;2022-11-20T13:17:42;58.75;53.43;68.52;;
74531;Laerm;63010;55.668;37.878;2022-11-20T13:20:12;58.50;53.15;64.72;;
74531;Laerm;63010;55.668;37.878;2022-11-20T13:22:45;60.16;54.06;70.71;;
74531;Laerm;63010;55.668;37.878;2022-11-20T13:25:32;58.80;54.31;64.52;;
74531;Laerm;63010;55.668;37.878;2022-11-20T13:28:00;58.44;53.65;63.91;;
74531;Laerm;63010;55.668;37.878;2022-11-20T13:30:27;58.33;53.31;64.02;;
74531;Laerm;63010;55.668;37.878;2022-11-20T13:32:56;58.27;53.64;62.95;;
74531;Laerm;63010;55.668;37.878;2022-11-20T13:38:12;59.64;55.10;69.36;;
74531;Laerm;63010;55.668;37.878;2022-11-20T13:40:51;58.97;54.26;66.43;;
74531;Laerm;63010;55.668;37.878;2022-11-20T13:43:27;58.99;54.51;64.58;;
74531;Laerm;63010;55.668;37.878;2022-11-20T13:46:04;59.14;54.16;65.20;;
74531;Laerm;63010;55.668;37.878;2022-11-20T13:48:38;59.83;53.69;65.66;;
74531;Laerm;63010;55.668;37.878;2022-11-20T14:00:17;58.43;54.45;65.52;;
74531;Laerm;63010;55.668;37.878;2022-11-20T14:02:25;59.57;55.08;65.61;;
74531;Laerm;63010;55.668;37.878;2022-11-20T14:04:54;59.80;54.87;69.24;;
74531;Laerm;63010;55.668;37.878;2022-11-20T14:07:27;59.17;54.04;68.30;;
74531;Laerm;63010;55.668;37.878;2022-11-20T14:09:57;58.91;54.02;65.46;;
74531;Laerm;63010;55.668;37.878;2022-11-20T14:12:28;58.04;53.20;65.05;;
74531;Laerm;63010;55.668;37.878;2022-11-20T14:14:55;57.69;52.35;66.84;;
74531;Laerm;63010;55.668;37.878;2022-11-20T14:19:56;58.41;53.51;68.11;;
74531;Laerm;63010;55.668;37.878;2022-11-20T14:22:25;56.94;52.43;62.99;;
74531;Laerm;63010;55.668;37.878;2022-11-20T14:27:40;58.71;53.22;66.48;;
74531;Laerm;63010;55.668;37.878;2022-11-20T14:30:18;58.32;53.33;63.45;;
74531;Laerm;63010;55.668;37.878;2022-11-20T14:32:46;58.29;54.02;65.05;;
74531;Laerm;63010;55.668;37.878;2022-11-20T14:35:27;58.39;53.02;69.86;;
74531;Laerm;63010;55.668;37.878;2022-11-20T14:37:53;58.60;53.48;67.50;;
74531;Laerm;63010;55.668;37.878;2022-11-20T14:40:28;57.87;53.84;64.34;;
74531;Laerm;63010;55.668;37.878;2022-11-20T14:42:55;56.64;52.67;65.44;;
74531;Laerm;63010;55.668;37.878;2022-11-20T14:45:21;58.75;53.65;69.01;;
74531;Laerm;63010;55.668;37.878;2022-11-20T14:47:48;58.41;54.32;67.01;;
74531;Laerm;63010;55.668;37.878;2022-11-20T14:50:33;58.13;53.47;63.49;;
74531;Laerm;63010;55.668;37.878;2022-11-20T14:53:00;59.36;54.02;66.58;;
74531;Laerm;63010;55.668;37.878;2022-11-20T14:57:56;58.74;54.78;63.99;;
74531;Laerm;63010;55.668;37.878;2022-11-20T15:00:23;59.04;55.30;66.27;;
74531;Laerm;63010;55.668;37.878;2022-11-20T15:02:50;59.05;53.49;67.58;;
74531;Laerm;63010;55.668;37.878;2022-11-20T15:05:19;58.53;53.63;67.32;;
74531;Laerm;63010;55.668;37.878;2022-11-20T15:07:47;59.74;55.32;65.02;;
74531;Laerm;63010;55.668;37.878;2022-11-20T15:10:26;58.89;55.21;63.77;;
74531;Laerm;63010;55.668;37.878;2022-11-20T15:13:06;59.45;55.34;65.88;;
74531;Laerm;63010;55.668;37.878;2022-11-20T15:15:46;59.60;54.07;64.23;;
74531;Laerm;63010;55.668;37.878;2022-11-20T15:18:15;59.25;54.88;65.40;;
74531;Laerm;63010;55.668;37.878;2022-11-20T15:20:42;59.16;55.40;63.74;;